createdAt,value
2022-12-17T00:02:13.896Z,97751.75
2022-12-17T00:05:18.158Z,97694.66
2022-12-17T00:08:22.493Z,97781.03
2022-12-17T00:11:27.258Z,97760.22
2022-12-17T00:14:31.454Z,97570.75
2022-12-17T00:17:35.437Z,97776.22
2022-12-17T00:20:47.239Z,97750.59
2022-12-17T00:23:51.473Z,97763.06
2022-12-17T00:26:56.258Z,97768.13
2022-12-17T00:30:00.867Z,97774.19
2022-12-17T00:33:05.482Z,97766.78
2022-12-17T00:36:13.866Z,97769.88
2022-12-17T00:39:17.733Z,97778.06
2022-12-17T00:42:21.800Z,97789.31
2022-12-17T00:45:26.548Z,97800.72
2022-12-17T00:48:32.211Z,97735.88
2022-12-17T00:51:36.482Z,97790.19
2022-12-17T00:54:40.743Z,97788.78
2022-12-17T00:57:45.208Z,97790.28
2022-12-17T01:00:52.525Z,97746.03
2022-12-17T01:04:00.515Z,97783.22
2022-12-17T01:07:04.572Z,97619.25
2022-12-17T01:10:08.650Z,97753.22
2022-12-17T01:13:12.776Z,97629.34
2022-12-17T01:16:27.943Z,97774.41
2022-12-17T01:19:32.385Z,97789.38
2022-12-17T01:22:36.217Z,97711.47
2022-12-17T01:25:40.128Z,97777.59
2022-12-17T01:28:45.486Z,97764.28
2022-12-17T01:31:49.945Z,97798.19
2022-12-17T01:34:54.323Z,97800.06
2022-12-17T01:37:58.591Z,97789.53
2022-12-17T01:41:02.935Z,97730.84
2022-12-17T01:44:06.978Z,97829.06
2022-12-17T01:47:11.580Z,97798.72
2022-12-17T01:50:29.265Z,97744.16
2022-12-17T01:53:36.808Z,97810.28
2022-12-17T01:56:41.567Z,97798.59
2022-12-17T02:00:06.695Z,97801.44
2022-12-17T02:03:18.404Z,97798.53
2022-12-17T02:06:33.263Z,97794.34
2022-12-17T02:09:51.933Z,97650.13
2022-12-17T02:13:25.588Z,97812.06
2022-12-17T02:16:50.604Z,97722.38
2022-12-17T02:20:09.688Z,97666.00
2022-12-17T02:23:37.478Z,97775.53
2022-12-17T02:27:07.636Z,97766.19
2022-12-17T02:30:20.136Z,97601.22
2022-12-17T02:33:26.883Z,97772.97
2022-12-17T02:36:31.425Z,97714.38
2022-12-17T02:39:36.736Z,97632.59
2022-12-17T02:42:44.750Z,97594.94
2022-12-17T02:45:51.843Z,97786.81
2022-12-17T02:48:56.316Z,97723.19
2022-12-17T02:52:03.480Z,97778.75
2022-12-17T02:55:08.377Z,97772.88
2022-12-17T02:58:12.835Z,97573.31
2022-12-17T03:01:16.902Z,97652.78
2022-12-17T03:04:21.382Z,97744.66
2022-12-17T03:07:26.253Z,97704.09
2022-12-17T03:10:30.694Z,97769.84
2022-12-17T03:13:46.139Z,97697.81
2022-12-17T03:16:50.525Z,97708.09
2022-12-17T03:19:54.962Z,97571.31
2022-12-17T03:22:58.905Z,97776.59
2022-12-17T03:26:02.795Z,97793.84
2022-12-17T03:29:07.205Z,97734.56
2022-12-17T03:32:11.045Z,97718.81
2022-12-17T03:35:14.997Z,97766.72
2022-12-17T03:38:18.862Z,97768.91
2022-12-17T03:41:23.037Z,97762.75
2022-12-17T03:44:27.459Z,97773.00
2022-12-17T03:47:31.334Z,97692.44
2022-12-17T03:50:35.505Z,97782.06
2022-12-17T03:53:39.618Z,97758.31
2022-12-17T03:56:44.448Z,97792.78
2022-12-17T03:59:48.701Z,97750.94
2022-12-17T04:02:53.020Z,97769.25
2022-12-17T04:05:57.638Z,97765.88
2022-12-17T04:09:01.670Z,97720.72
2022-12-17T04:12:06.100Z,97766.31
2022-12-17T04:15:10.274Z,97729.09
2022-12-17T04:18:14.861Z,97550.78
2022-12-17T04:21:18.847Z,97679.72
2022-12-17T04:24:22.834Z,97786.56
2022-12-17T04:27:26.832Z,97717.56
2022-12-17T04:30:31.290Z,97698.81
2022-12-17T04:33:35.455Z,97702.78
2022-12-17T04:36:40.241Z,97761.84
2022-12-17T04:39:55.409Z,97579.06
2022-12-17T04:43:00.004Z,97784.56
2022-12-17T04:46:08.934Z,97799.91
2022-12-17T04:49:13.101Z,97779.09
2022-12-17T04:52:17.066Z,97797.56
2022-12-17T04:55:21.172Z,97661.09
2022-12-17T04:58:28.125Z,97793.97
2022-12-17T05:01:32.210Z,97810.59
2022-12-17T05:04:36.617Z,97823.38
2022-12-17T05:07:40.907Z,97625.94
2022-12-17T05:10:44.720Z,97662.88
2022-12-17T05:13:48.645Z,97769.47
2022-12-17T05:16:53.285Z,97655.66
2022-12-17T05:19:58.587Z,97848.56
2022-12-17T05:23:02.955Z,97655.97
2022-12-17T05:26:07.090Z,97809.75
2022-12-17T05:29:15.851Z,97832.47
2022-12-17T05:32:20.210Z,97766.59
2022-12-17T05:35:25.114Z,97780.91
2022-12-17T05:38:30.001Z,97773.13
2022-12-17T05:41:34.323Z,97791.22
2022-12-17T05:44:38.177Z,97632.53
2022-12-17T05:47:42.268Z,97609.28
2022-12-17T05:50:47.272Z,97807.16
2022-12-17T05:53:51.259Z,97594.16
2022-12-17T05:56:55.217Z,97814.06
2022-12-17T06:00:00.041Z,97811.75
2022-12-17T06:03:04.339Z,97812.75
2022-12-17T06:06:16.499Z,97783.91
2022-12-17T06:09:20.770Z,97625.50
2022-12-17T06:12:24.699Z,97770.31
2022-12-17T06:15:28.886Z,97835.63
2022-12-17T06:18:32.972Z,97841.31
2022-12-17T06:21:37.029Z,97875.75
2022-12-17T06:24:45.766Z,97806.97
2022-12-17T06:27:50.383Z,97776.72
2022-12-17T06:30:54.474Z,97768.75
2022-12-17T06:33:59.031Z,97866.31
2022-12-17T06:37:03.574Z,97861.16
2022-12-17T06:40:07.768Z,97684.16
2022-12-17T06:43:15.258Z,97688.03
2022-12-17T06:46:19.161Z,97855.25
2022-12-17T06:49:23.526Z,97695.47
2022-12-17T06:52:27.441Z,97700.22
2022-12-17T06:55:31.432Z,97708.84
2022-12-17T06:58:35.488Z,97915.25
2022-12-17T07:01:39.732Z,97748.94
2022-12-17T07:04:44.162Z,97701.59
2022-12-17T07:07:47.877Z,97864.78
2022-12-17T07:10:51.896Z,97909.53
2022-12-17T07:14:03.986Z,97873.44
2022-12-17T07:17:08.237Z,97915.41
2022-12-17T07:20:12.517Z,97839.47
2022-12-17T07:23:16.646Z,97766.78
2022-12-17T07:26:20.723Z,97901.25
2022-12-17T07:29:25.309Z,97864.38
2022-12-17T07:32:29.508Z,97898.44
2022-12-17T07:35:33.372Z,97710.56
2022-12-17T07:38:37.516Z,97962.09
2022-12-17T07:41:41.194Z,97687.44
2022-12-17T07:44:45.207Z,97911.28
2022-12-17T07:47:49.124Z,97828.72
2022-12-17T07:50:53.286Z,97917.78
2022-12-17T07:53:57.594Z,97749.66
2022-12-17T07:57:01.626Z,97920.28
2022-12-17T08:00:05.797Z,97891.22
2022-12-17T08:03:15.911Z,97893.41
2022-12-17T08:06:20.559Z,97928.53
2022-12-17T08:09:24.545Z,97896.34
2022-12-17T08:12:29.089Z,97925.56
2022-12-17T08:15:33.360Z,97872.75
2022-12-17T08:18:37.528Z,97930.28
2022-12-17T08:21:41.741Z,97886.00
2022-12-17T08:24:46.145Z,97734.63
2022-12-17T08:27:50.611Z,97945.91
2022-12-17T08:30:54.569Z,97949.59
2022-12-17T08:34:02.268Z,97742.53
2022-12-17T08:37:09.067Z,97903.41
2022-12-17T08:40:13.142Z,97944.28
2022-12-17T08:43:17.776Z,97855.28
2022-12-17T08:46:21.870Z,97806.59
2022-12-17T08:49:26.270Z,97928.63
2022-12-17T08:52:30.245Z,97965.34
2022-12-17T08:55:34.216Z,97920.06
2022-12-17T08:58:38.345Z,97748.16
2022-12-17T09:01:42.552Z,97961.44
2022-12-17T09:04:46.415Z,97955.50
2022-12-17T09:07:50.883Z,97959.28
2022-12-17T09:10:55.369Z,97973.59
2022-12-17T09:14:00.801Z,97919.19
2022-12-17T09:17:05.316Z,97931.78
2022-12-17T09:20:09.708Z,97784.25
2022-12-17T09:23:13.812Z,98001.47
2022-12-17T09:26:18.307Z,97929.41
2022-12-17T09:29:22.597Z,97973.34
2022-12-17T09:32:26.857Z,97804.59
2022-12-17T09:35:30.573Z,97771.91
2022-12-17T09:38:34.678Z,97975.63
2022-12-17T09:41:44.595Z,97981.41
2022-12-17T09:45:06.435Z,97960.72
2022-12-17T09:48:28.101Z,97921.72
2022-12-17T09:51:44.950Z,97954.25
2022-12-17T09:55:03.570Z,97917.69
2022-12-17T09:58:16.595Z,97952.75
2022-12-17T10:01:21.320Z,97908.19
2022-12-17T10:04:34.603Z,97996.91
2022-12-17T10:07:45.442Z,97998.41
2022-12-17T10:10:51.838Z,97877.22
2022-12-17T10:13:56.093Z,98007.72
2022-12-17T10:17:11.492Z,97910.66
2022-12-17T10:20:17.287Z,98004.75
2022-12-17T10:23:21.816Z,98017.69
2022-12-17T10:26:26.546Z,97955.22
2022-12-17T10:29:37.985Z,97846.16
2022-12-17T10:32:44.906Z,98020.78
2022-12-17T10:35:56.590Z,97971.63
2022-12-17T10:39:00.917Z,97978.94
2022-12-17T10:42:05.924Z,97919.38
2022-12-17T10:45:10.021Z,97793.03
2022-12-17T10:48:14.188Z,97908.00
2022-12-17T10:51:18.232Z,98035.38
2022-12-17T10:54:46.945Z,98067.31
2022-12-17T10:57:55.549Z,98024.56
2022-12-17T11:01:00.225Z,97941.09
2022-12-17T11:04:11.921Z,98045.53
2022-12-17T11:07:16.502Z,97852.16
2022-12-17T11:10:23.800Z,97988.16
2022-12-17T11:13:34.747Z,97938.69
2022-12-17T11:16:48.436Z,98020.00
2022-12-17T11:20:15.721Z,97908.91
2022-12-17T11:23:22.375Z,98077.28
2022-12-17T11:26:33.173Z,98094.16
2022-12-17T11:29:37.490Z,98048.56
2022-12-17T11:32:41.768Z,98085.81
2022-12-17T11:36:14.445Z,98025.66
2022-12-17T11:39:33.892Z,98131.13
2022-12-17T11:42:49.409Z,97959.88
2022-12-17T11:46:11.972Z,98086.94
2022-12-17T11:49:39.363Z,98088.66
2022-12-17T11:52:43.479Z,98092.31
2022-12-17T11:56:01.762Z,98119.28
2022-12-17T11:59:11.570Z,98024.50
2022-12-17T12:02:51.634Z,98091.91
2022-12-17T12:06:15.703Z,98045.41
2022-12-17T12:09:35.695Z,98116.22
2022-12-17T12:13:09.984Z,98111.00
2022-12-17T12:16:23.963Z,97907.31
2022-12-17T12:19:57.664Z,98115.47
2022-12-17T12:23:20.358Z,98060.75
2022-12-17T12:26:37.908Z,98108.13
2022-12-17T12:30:06.363Z,98111.63
2022-12-17T12:33:25.770Z,98085.00
2022-12-17T12:36:33.558Z,97927.63
2022-12-17T12:39:49.259Z,98132.66
2022-12-17T12:43:03.854Z,98100.88
2022-12-17T12:46:33.518Z,98157.88
2022-12-17T12:50:01.913Z,97967.63
2022-12-17T12:53:14.136Z,98121.13
2022-12-17T12:56:18.569Z,98160.88
2022-12-17T12:59:31.066Z,98149.78
2022-12-17T13:02:49.979Z,98174.72
2022-12-17T13:05:40.044Z,98148.53
2022-12-17T13:08:25.803Z,98163.13
2022-12-17T13:11:28.049Z,98189.09
2022-12-17T13:14:22.147Z,98199.25
2022-12-17T13:17:17.901Z,98187.84
2022-12-17T13:20:32.826Z,98204.16
2022-12-17T13:23:26.752Z,98123.13
2022-12-17T13:26:23.309Z,98203.44
2022-12-17T13:29:37.274Z,98213.59
2022-12-17T13:32:29.381Z,98161.44
2022-12-17T13:35:33.180Z,98175.00
2022-12-17T13:38:33.606Z,98102.34
2022-12-17T13:41:22.250Z,98155.97
2022-12-17T13:44:31.264Z,98227.41
2022-12-17T13:47:24.422Z,98242.00
2022-12-17T13:50:33.772Z,98248.19
2022-12-17T13:53:20.269Z,98186.34
2022-12-17T13:56:05.938Z,98046.44
2022-12-17T13:58:53.170Z,98259.78
2022-12-17T14:01:47.067Z,98235.28
2022-12-17T14:04:32.884Z,98046.41
2022-12-17T14:07:18.336Z,98279.19
2022-12-17T14:10:05.640Z,98252.00
2022-12-17T14:12:51.482Z,98071.50
2022-12-17T14:15:37.591Z,98241.13
2022-12-17T14:18:23.263Z,98156.25
2022-12-17T14:21:23.544Z,98298.25
2022-12-17T14:24:13.649Z,98109.22
2022-12-17T14:27:01.208Z,98237.97
2022-12-17T14:29:47.109Z,98301.38
2022-12-17T14:32:36.048Z,98215.59
2022-12-17T14:35:31.632Z,98339.66
2022-12-17T14:38:37.426Z,98341.88
2022-12-17T14:41:44.813Z,98218.00
2022-12-17T14:44:31.982Z,98329.91
2022-12-17T14:47:23.846Z,98333.56
2022-12-17T14:50:12.876Z,98371.22
2022-12-17T14:53:05.019Z,98390.47
2022-12-17T14:55:58.294Z,98366.03
2022-12-17T14:58:47.503Z,98389.19
2022-12-17T15:01:35.078Z,98378.84
2022-12-17T15:04:22.220Z,98378.84
2022-12-17T15:07:18.216Z,98385.25
2022-12-17T15:10:10.975Z,98381.03
2022-12-17T15:13:03.644Z,98386.50
2022-12-17T15:15:52.001Z,98341.66
2022-12-17T15:18:39.255Z,98384.28
2022-12-17T15:21:27.736Z,98369.84
2022-12-17T15:24:19.484Z,98299.19
2022-12-17T15:27:04.904Z,98405.44
2022-12-17T15:29:50.472Z,98348.94
2022-12-17T15:32:36.278Z,98207.63
2022-12-17T15:35:21.771Z,98405.53
2022-12-17T15:38:07.743Z,98430.34
2022-12-17T15:40:53.483Z,98359.72
2022-12-17T15:43:39.135Z,98367.44
2022-12-17T15:46:25.061Z,98389.94
2022-12-17T15:49:10.919Z,98312.50
2022-12-17T15:51:56.542Z,98432.25
2022-12-17T15:54:42.912Z,98430.19
2022-12-17T15:57:28.492Z,98449.72
2022-12-17T16:00:14.490Z,98438.34
2022-12-17T16:03:00.067Z,98442.44
2022-12-17T16:05:46.024Z,98478.53
2022-12-17T16:08:32.660Z,98511.09
2022-12-17T16:11:18.063Z,98445.25
2022-12-17T16:14:03.574Z,98461.47
2022-12-17T16:16:49.596Z,98461.88
2022-12-17T16:19:34.947Z,98426.75
2022-12-17T16:22:20.454Z,98304.13
2022-12-17T16:25:08.133Z,98483.97
2022-12-17T16:27:55.285Z,98300.38
2022-12-17T16:30:41.999Z,98478.66
2022-12-17T16:33:35.593Z,98328.81
2022-12-17T16:36:23.050Z,98494.47
2022-12-17T16:39:15.698Z,98573.41
2022-12-17T16:42:01.586Z,98518.03
2022-12-17T16:44:47.456Z,98320.16
2022-12-17T16:47:33.485Z,98350.75
2022-12-17T16:50:21.134Z,98551.56
2022-12-17T16:53:08.204Z,98547.25
2022-12-17T16:55:54.415Z,98322.09
2022-12-17T16:58:41.226Z,98540.94
2022-12-17T17:01:28.727Z,98584.16
2022-12-17T17:04:16.380Z,98568.03
2022-12-17T17:07:01.652Z,98557.44
2022-12-17T17:09:47.463Z,98562.31
2022-12-17T17:12:33.552Z,98526.25
2022-12-17T17:15:19.616Z,98525.22
2022-12-17T17:18:05.729Z,98580.09
2022-12-17T17:20:51.630Z,98352.50
2022-12-17T17:23:37.879Z,98587.78
2022-12-17T17:26:24.834Z,98539.88
2022-12-17T17:29:11.045Z,98586.59
2022-12-17T17:32:13.846Z,98284.41
2022-12-17T17:34:59.872Z,98523.84
2022-12-17T17:37:46.482Z,98578.00
2022-12-17T17:40:32.792Z,98599.81
2022-12-17T17:43:17.989Z,98377.06
2022-12-17T17:46:09.445Z,98427.03
2022-12-17T17:48:57.370Z,98641.06
2022-12-17T17:54:50.456Z,98615.13
2022-12-17T17:57:36.302Z,98503.31
2022-12-17T18:00:21.628Z,98509.59
2022-12-17T18:03:07.385Z,98593.78
2022-12-17T18:05:53.390Z,98612.56
2022-12-17T18:08:40.523Z,98423.31
2022-12-17T18:11:29.995Z,98424.44
2022-12-17T18:14:15.372Z,98455.19
2022-12-17T18:17:00.870Z,98429.25
2022-12-17T18:19:48.646Z,98641.91
2022-12-17T18:22:33.874Z,98661.38
2022-12-17T18:25:19.374Z,98708.25
2022-12-17T18:28:04.859Z,98632.00
2022-12-17T18:30:50.624Z,98553.22
2022-12-17T18:33:38.300Z,98641.06
2022-12-17T18:36:29.016Z,98676.63
2022-12-17T18:39:20.790Z,98692.38
2022-12-17T18:42:25.021Z,98671.88
2022-12-17T18:45:11.050Z,98505.81
2022-12-17T18:47:58.758Z,98738.72
2022-12-17T18:50:44.853Z,98660.72
2022-12-17T18:53:30.502Z,98711.56
2022-12-17T18:56:38.003Z,98717.41
2022-12-17T18:59:29.041Z,98643.94
2022-12-17T19:02:15.425Z,98522.50
2022-12-17T19:05:01.124Z,98683.56
2022-12-17T19:07:46.855Z,98732.97
2022-12-17T19:10:34.841Z,98713.94
2022-12-17T19:13:20.219Z,98680.38
2022-12-17T19:16:14.812Z,98735.25
2022-12-17T19:19:02.985Z,98735.25
2022-12-17T19:21:51.850Z,98735.13
2022-12-17T19:24:38.401Z,98652.47
2022-12-17T19:27:25.960Z,98765.13
2022-12-17T19:30:12.228Z,98717.81
2022-12-17T19:32:57.935Z,98781.28
2022-12-17T19:35:43.554Z,98693.00
2022-12-17T19:38:28.980Z,98716.53
2022-12-17T19:41:17.470Z,98803.84
2022-12-17T19:44:05.985Z,98570.81
2022-12-17T19:46:53.249Z,98778.00
2022-12-17T19:49:41.553Z,98778.22
2022-12-17T19:52:30.968Z,98570.75
2022-12-17T19:55:23.862Z,98766.09
2022-12-17T19:58:10.358Z,98762.00
2022-12-17T20:00:56.650Z,98727.28
2022-12-17T20:03:45.330Z,98726.47
2022-12-17T20:06:35.299Z,98797.69
2022-12-17T20:09:21.867Z,98572.69
2022-12-17T20:12:10.867Z,98763.94
2022-12-17T20:14:57.222Z,98793.53
2022-12-17T20:17:55.575Z,98822.81
2022-12-17T20:20:45.327Z,98834.19
2022-12-17T20:23:32.384Z,98829.53
2022-12-17T20:26:19.143Z,98786.47
2022-12-17T20:29:06.418Z,98843.38
2022-12-17T20:31:53.464Z,98787.16
2022-12-17T20:34:40.845Z,98788.19
2022-12-17T20:37:27.560Z,98851.72
2022-12-17T20:40:13.277Z,98824.38
2022-12-17T20:42:58.701Z,98838.59
2022-12-17T20:45:52.219Z,98859.72
2022-12-17T20:48:40.696Z,98814.09
2022-12-17T20:51:28.710Z,98834.66
2022-12-17T20:54:15.715Z,98661.63
2022-12-17T20:57:03.770Z,98881.81
2022-12-17T20:59:49.582Z,98890.19
2022-12-17T21:02:36.375Z,98804.09
2022-12-17T21:05:22.279Z,98853.56
2022-12-17T21:08:07.679Z,98853.56
2022-12-17T21:10:56.643Z,98689.69
2022-12-17T21:13:42.583Z,98794.44
2022-12-17T21:16:30.384Z,98924.38
2022-12-17T21:19:18.399Z,98923.53
2022-12-17T21:22:06.340Z,98931.75
2022-12-17T21:24:56.103Z,98934.22
2022-12-17T21:27:42.092Z,98934.22
2022-12-17T21:30:28.418Z,98948.03
2022-12-17T21:33:13.804Z,98967.69
2022-12-17T21:36:01.125Z,98943.72
2022-12-17T21:38:53.676Z,98950.84
2022-12-17T21:41:44.528Z,98945.31
2022-12-17T21:44:32.253Z,98919.63
2022-12-17T21:47:17.880Z,98873.88
2022-12-17T21:50:03.978Z,98934.16
2022-12-17T21:52:49.977Z,98933.59
2022-12-17T21:55:36.771Z,98902.84
2022-12-17T21:58:22.828Z,98776.81
2022-12-17T22:01:20.345Z,98959.38
2022-12-17T22:04:06.437Z,98933.50
2022-12-17T22:06:56.190Z,98772.13
2022-12-17T22:10:06.561Z,98900.44
2022-12-17T22:13:10.006Z,98773.75
2022-12-17T22:15:55.967Z,98984.97
2022-12-17T22:18:42.604Z,99002.34
2022-12-17T22:21:28.922Z,98952.69
2022-12-17T22:24:17.612Z,98948.75
2022-12-17T22:27:03.067Z,98954.84
2022-12-17T22:30:07.072Z,98811.44
2022-12-17T22:33:02.306Z,99052.59
2022-12-17T22:37:19.799Z,99041.09
2022-12-17T22:40:33.314Z,98822.44
2022-12-17T22:44:41.939Z,98969.09
2022-12-17T22:45:48.159Z,99041.94
2022-12-17T22:48:35.415Z,98985.59
2022-12-17T22:51:22.780Z,99083.53
2022-12-17T22:54:16.916Z,99064.56
2022-12-17T22:57:36.331Z,99052.59
2022-12-17T23:00:16.959Z,98984.78
2022-12-17T23:03:03.603Z,99052.84
2022-12-17T23:05:49.245Z,98850.38
2022-12-17T23:08:34.912Z,98971.28
2022-12-17T23:11:26.133Z,98873.47
2022-12-17T23:14:11.636Z,99073.88
2022-12-17T23:16:56.916Z,99089.19
2022-12-17T23:19:42.232Z,99002.78
2022-12-17T23:22:27.578Z,98878.41
2022-12-17T23:25:13.508Z,99125.03
2022-12-17T23:27:58.865Z,99109.53
2022-12-17T23:30:44.272Z,98883.38
2022-12-17T23:33:29.745Z,98972.50
2022-12-17T23:36:21.874Z,99040.59
2022-12-17T23:39:08.291Z,98984.84
2022-12-17T23:41:56.726Z,99100.41
2022-12-17T23:44:42.012Z,98952.56
2022-12-17T23:47:27.594Z,99073.94
2022-12-17T23:50:12.785Z,99128.91
2022-12-17T23:52:58.342Z,99099.03
2022-12-17T23:55:43.702Z,99137.00
2022-12-17T23:58:29.019Z,98973.06
